invalid date format, no / or - is used, can not process this file /realtime.txt - debug = Metar Aviation Weather Data     KMLB Melbourne International Airport
 X  Close Metar Aviation Weather Data     KMLB Melbourne International Airport
Temperature
57°F Temperature
50°F Dewpoint
77% Humidity



Wind
0 MPH
0 KM/H
0 M/S
0 KTS



Calm
North
Current Conditions

Partly Cloudy Partly Cloudy
Pressure 1017.62 (hPa) - 30.05 (inHg)
Visibility 9.9 (mile) - 16 (km)
Airport
Airport-code KMLB

Location: Melbourne International Airport
Distance: 4 (mi)

Metar:
KMLB 180053Z 00000KT 10SM FEW048 SCT060 14/10 A3005 RMK AO2 SLP176 T01440100

Time: 17-01-2021 7:53 pm EST